Terminal Aerodrome Forecast
Issued by NWS

Home | Current Version | Previous Version | Graphics & Text | Print | Product List | Glossary On
Versions: 1 2 3 4 5 6 7 8 9 10 11 12 13 14 15 16 17 18 19 20
000
FTUS43 KICT 250522
TAFRSL
TAF
KRSL 250522Z 2506/2606 04011KT P6SM VCTS SCT025CB BKN090
      TEMPO 2506/2508 6SM -TSRA BKN018CB OVC060
     FM251000 27007KT P6SM SCT020 BKN035
     FM251600 36010KT P6SM SCT050
     FM260000 08015KT P6SM SCT100=

USA.gov is the U.S. government's official web portal to all federal, state and local government web resources and services.